sensor_id;sensor_type;location;lat;lon;timestamp;P1;durP1;ratioP1;P2;durP2;ratioP2
1180;SDS011;579;52.046;8.532;2023-04-25T00:02:56;0.10;;;0.10;;
1180;SDS011;579;52.046;8.532;2023-04-25T00:05:24;0.03;;;0.03;;
1180;SDS011;579;52.046;8.532;2023-04-25T00:07:51;0.10;;;0.10;;
1180;SDS011;579;52.046;8.532;2023-04-25T00:10:17;0.10;;;0.10;;
1180;SDS011;579;52.046;8.532;2023-04-25T00:12:44;0.10;;;0.10;;
1180;SDS011;579;52.046;8.532;2023-04-25T00:15:10;0.10;;;0.10;;
1180;SDS011;579;52.046;8.532;2023-04-25T00:17:37;0.10;;;0.10;;
1180;SDS011;579;52.046;8.532;2023-04-25T00:22:49;0.00;;;0.00;;
1180;SDS011;579;52.046;8.532;2023-04-25T00:25:15;0.00;;;0.00;;
1180;SDS011;579;52.046;8.532;2023-04-25T00:27:42;0.10;;;0.10;;
1180;SDS011;579;52.046;8.532;2023-04-25T00:30:08;0.10;;;0.10;;
1180;SDS011;579;52.046;8.532;2023-04-25T00:32:36;0.10;;;0.10;;
1180;SDS011;579;52.046;8.532;2023-04-25T00:35:03;0.10;;;0.10;;
1180;SDS011;579;52.046;8.532;2023-04-25T00:37:30;0.10;;;0.10;;
1180;SDS011;579;52.046;8.532;2023-04-25T00:45:03;0.10;;;0.10;;
1180;SDS011;579;52.046;8.532;2023-04-25T00:47:32;0.00;;;0.00;;
1180;SDS011;579;52.046;8.532;2023-04-25T00:49:59;0.10;;;0.10;;
1180;SDS011;579;52.046;8.532;2023-04-25T00:52:25;0.00;;;0.00;;
1180;SDS011;579;52.046;8.532;2023-04-25T00:54:52;0.00;;;0.00;;
1180;SDS011;579;52.046;8.532;2023-04-25T00:57:18;0.00;;;0.00;;
1180;SDS011;579;52.046;8.532;2023-04-25T00:59:45;0.00;;;0.00;;
1180;SDS011;579;52.046;8.532;2023-04-25T01:07:12;0.00;;;0.00;;
1180;SDS011;579;52.046;8.532;2023-04-25T01:09:40;0.05;;;0.05;;
1180;SDS011;579;52.046;8.532;2023-04-25T01:12:07;0.08;;;0.08;;
1180;SDS011;579;52.046;8.532;2023-04-25T01:14:33;0.10;;;0.10;;
1180;SDS011;579;52.046;8.532;2023-04-25T01:17:00;0.10;;;0.10;;
1180;SDS011;579;52.046;8.532;2023-04-25T01:19:26;0.00;;;0.00;;
1180;SDS011;579;52.046;8.532;2023-04-25T01:21:54;0.10;;;0.10;;
1180;SDS011;579;52.046;8.532;2023-04-25T01:27:00;0.10;;;0.10;;
1180;SDS011;579;52.046;8.532;2023-04-25T01:29:27;0.10;;;0.10;;
1180;SDS011;579;52.046;8.532;2023-04-25T01:31:54;0.00;;;0.00;;
1180;SDS011;579;52.046;8.532;2023-04-25T01:34:21;0.10;;;0.10;;
1180;SDS011;579;52.046;8.532;2023-04-25T01:36:48;0.00;;;0.00;;
1180;SDS011;579;52.046;8.532;2023-04-25T01:39:15;0.00;;;0.00;;
1180;SDS011;579;52.046;8.532;2023-04-25T01:41:42;0.00;;;0.00;;
1180;SDS011;579;52.046;8.532;2023-04-25T01:47:52;0.00;;;0.00;;
1180;SDS011;579;52.046;8.532;2023-04-25T01:50:18;0.10;;;0.10;;
1180;SDS011;579;52.046;8.532;2023-04-25T01:52:45;0.00;;;0.00;;
1180;SDS011;579;52.046;8.532;2023-04-25T01:55:12;0.00;;;0.00;;
1180;SDS011;579;52.046;8.532;2023-04-25T01:57:38;0.10;;;0.10;;
1180;SDS011;579;52.046;8.532;2023-04-25T02:00:05;0.10;;;0.10;;
1180;SDS011;579;52.046;8.532;2023-04-25T02:02:34;0.08;;;0.08;;
1180;SDS011;579;52.046;8.532;2023-04-25T02:10:06;0.00;;;0.00;;
1180;SDS011;579;52.046;8.532;2023-04-25T02:12:33;0.10;;;0.10;;
1180;SDS011;579;52.046;8.532;2023-04-25T02:15:00;0.10;;;0.10;;
1180;SDS011;579;52.046;8.532;2023-04-25T02:17:26;0.10;;;0.10;;
1180;SDS011;579;52.046;8.532;2023-04-25T02:19:53;0.00;;;0.00;;
1180;SDS011;579;52.046;8.532;2023-04-25T02:22:19;0.00;;;0.00;;
1180;SDS011;579;52.046;8.532;2023-04-25T02:24:46;0.03;;;0.03;;
1180;SDS011;579;52.046;8.532;2023-04-25T02:32:17;0.10;;;0.10;;
1180;SDS011;579;52.046;8.532;2023-04-25T02:34:43;0.10;;;0.10;;
1180;SDS011;579;52.046;8.532;2023-04-25T02:37:10;0.08;;;0.08;;
1180;SDS011;579;52.046;8.532;2023-04-25T02:39:36;0.10;;;0.10;;
1180;SDS011;579;52.046;8.532;2023-04-25T02:42:02;0.10;;;0.10;;
1180;SDS011;579;52.046;8.532;2023-04-25T02:44:29;0.10;;;0.10;;
1180;SDS011;579;52.046;8.532;2023-04-25T02:46:55;0.10;;;0.10;;
1180;SDS011;579;52.046;8.532;2023-04-25T02:54:27;0.10;;;0.10;;
1180;SDS011;579;52.046;8.532;2023-04-25T02:56:54;0.10;;;0.10;;
1180;SDS011;579;52.046;8.532;2023-04-25T02:59:20;0.10;;;0.10;;
1180;SDS011;579;52.046;8.532;2023-04-25T03:01:46;0.10;;;0.10;;
1180;SDS011;579;52.046;8.532;2023-04-25T03:04:12;0.10;;;0.10;;
1180;SDS011;579;52.046;8.532;2023-04-25T03:06:39;0.10;;;0.10;;
1180;SDS011;579;52.046;8.532;2023-04-25T03:09:05;0.00;;;0.00;;
1180;SDS011;579;52.046;8.532;2023-04-25T03:14:51;0.10;;;0.10;;
1180;SDS011;579;52.046;8.532;2023-04-25T03:17:18;0.10;;;0.10;;
1180;SDS011;579;52.046;8.532;2023-04-25T03:19:44;0.10;;;0.10;;
1180;SDS011;579;52.046;8.532;2023-04-25T03:22:10;0.10;;;0.10;;
1180;SDS011;579;52.046;8.532;2023-04-25T03:24:36;0.10;;;0.10;;
1180;SDS011;579;52.046;8.532;2023-04-25T03:27:03;0.10;;;0.10;;
1180;SDS011;579;52.046;8.532;2023-04-25T03:29:29;0.10;;;0.10;;
1180;SDS011;579;52.046;8.532;2023-04-25T03:35:02;0.10;;;0.10;;
1180;SDS011;579;52.046;8.532;2023-04-25T03:37:30;0.10;;;0.10;;
1180;SDS011;579;52.046;8.532;2023-04-25T03:39:56;0.10;;;0.10;;
1180;SDS011;579;52.046;8.532;2023-04-25T03:42:22;0.10;;;0.10;;
1180;SDS011;579;52.046;8.532;2023-04-25T03:44:49;0.10;;;0.10;;
1180;SDS011;579;52.046;8.532;2023-04-25T03:47:16;0.10;;;0.10;;
1180;SDS011;579;52.046;8.532;2023-04-25T03:49:42;0.10;;;0.10;;
1180;SDS011;579;52.046;8.532;2023-04-25T03:57:13;0.10;;;0.10;;
1180;SDS011;579;52.046;8.532;2023-04-25T03:59:40;0.10;;;0.10;;
1180;SDS011;579;52.046;8.532;2023-04-25T04:02:06;0.10;;;0.10;;
1180;SDS011;579;52.046;8.532;2023-04-25T04:04:32;0.10;;;0.10;;
1180;SDS011;579;52.046;8.532;2023-04-25T04:06:59;0.10;;;0.10;;
1180;SDS011;579;52.046;8.532;2023-04-25T04:09:25;0.10;;;0.10;;
1180;SDS011;579;52.046;8.532;2023-04-25T04:11:52;0.10;;;0.10;;
1180;SDS011;579;52.046;8.532;2023-04-25T04:16:56;0.15;;;0.15;;
1180;SDS011;579;52.046;8.532;2023-04-25T04:19:23;0.08;;;0.08;;
1180;SDS011;579;52.046;8.532;2023-04-25T04:21:49;0.10;;;0.10;;
1180;SDS011;579;52.046;8.532;2023-04-25T04:24:15;0.10;;;0.10;;
1180;SDS011;579;52.046;8.532;2023-04-25T04:26:42;0.10;;;0.10;;
1180;SDS011;579;52.046;8.532;2023-04-25T04:29:09;0.10;;;0.10;;
1180;SDS011;579;52.046;8.532;2023-04-25T04:31:36;0.10;;;0.10;;
1180;SDS011;579;52.046;8.532;2023-04-25T04:39:01;0.10;;;0.10;;
1180;SDS011;579;52.046;8.532;2023-04-25T04:41:28;0.20;;;0.20;;
1180;SDS011;579;52.046;8.532;2023-04-25T04:43:55;0.10;;;0.10;;
1180;SDS011;579;52.046;8.532;2023-04-25T04:46:21;0.10;;;0.10;;
1180;SDS011;579;52.046;8.532;2023-04-25T04:48:49;0.10;;;0.10;;
1180;SDS011;579;52.046;8.532;2023-04-25T04:51:15;0.00;;;0.00;;
1180;SDS011;579;52.046;8.532;2023-04-25T04:53:42;0.00;;;0.00;;
1180;SDS011;579;52.046;8.532;2023-04-25T04:59:00;0.00;;;0.00;;
1180;SDS011;579;52.046;8.532;2023-04-25T05:01:27;0.08;;;0.08;;
1180;SDS011;579;52.046;8.532;2023-04-25T05:03:54;0.10;;;0.10;;
1180;SDS011;579;52.046;8.532;2023-04-25T05:06:25;0.10;;;0.10;;
1180;SDS011;579;52.046;8.532;2023-04-25T05:08:52;0.10;;;0.10;;
1180;SDS011;579;52.046;8.532;2023-04-25T05:11:18;0.08;;;0.08;;
1180;SDS011;579;52.046;8.532;2023-04-25T05:13:44;0.10;;;0.10;;
1180;SDS011;579;52.046;8.532;2023-04-25T05:21:16;0.13;;;0.13;;
1180;SDS011;579;52.046;8.532;2023-04-25T05:23:42;0.10;;;0.10;;
1180;SDS011;579;52.046;8.532;2023-04-25T05:26:08;0.10;;;0.10;;
1180;SDS011;579;52.046;8.532;2023-04-25T05:28:38;0.10;;;0.10;;
1180;SDS011;579;52.046;8.532;2023-04-25T05:31:05;0.10;;;0.10;;
1180;SDS011;579;52.046;8.532;2023-04-25T05:33:32;0.10;;;0.10;;
1180;SDS011;579;52.046;8.532;2023-04-25T05:35:58;0.10;;;0.10;;
1180;SDS011;579;52.046;8.532;2023-04-25T05:41:29;0.10;;;0.10;;
1180;SDS011;579;52.046;8.532;2023-04-25T05:43:55;0.10;;;0.10;;
1180;SDS011;579;52.046;8.532;2023-04-25T05:46:21;0.10;;;0.10;;
1180;SDS011;579;52.046;8.532;2023-04-25T05:48:48;0.10;;;0.10;;
1180;SDS011;579;52.046;8.532;2023-04-25T05:51:14;0.10;;;0.10;;
1180;SDS011;579;52.046;8.532;2023-04-25T05:53:41;0.10;;;0.10;;
1180;SDS011;579;52.046;8.532;2023-04-25T05:56:07;0.10;;;0.10;;
1180;SDS011;579;52.046;8.532;2023-04-25T06:03:37;0.10;;;0.10;;
1180;SDS011;579;52.046;8.532;2023-04-25T06:06:04;0.10;;;0.10;;
1180;SDS011;579;52.046;8.532;2023-04-25T06:08:31;0.10;;;0.10;;
1180;SDS011;579;52.046;8.532;2023-04-25T06:10:57;0.10;;;0.10;;
1180;SDS011;579;52.046;8.532;2023-04-25T06:13:23;0.10;;;0.10;;
1180;SDS011;579;52.046;8.532;2023-04-25T06:15:49;0.10;;;0.10;;
1180;SDS011;579;52.046;8.532;2023-04-25T06:18:16;0.10;;;0.10;;
1180;SDS011;579;52.046;8.532;2023-04-25T06:25:47;0.10;;;0.10;;
1180;SDS011;579;52.046;8.532;2023-04-25T06:28:14;0.10;;;0.10;;
1180;SDS011;579;52.046;8.532;2023-04-25T06:30:40;0.10;;;0.10;;
1180;SDS011;579;52.046;8.532;2023-04-25T06:33:06;0.10;;;0.10;;
1180;SDS011;579;52.046;8.532;2023-04-25T06:35:33;0.10;;;0.10;;
1180;SDS011;579;52.046;8.532;2023-04-25T06:37:59;0.10;;;0.10;;
1180;SDS011;579;52.046;8.532;2023-04-25T06:40:26;0.05;;;0.05;;
1180;SDS011;579;52.046;8.532;2023-04-25T06:47:52;0.10;;;0.10;;
1180;SDS011;579;52.046;8.532;2023-04-25T06:50:19;0.00;;;0.00;;
1180;SDS011;579;52.046;8.532;2023-04-25T06:52:45;0.10;;;0.10;;
1180;SDS011;579;52.046;8.532;2023-04-25T06:55:11;0.10;;;0.10;;
1180;SDS011;579;52.046;8.532;2023-04-25T06:57:37;0.08;;;0.08;;
1180;SDS011;579;52.046;8.532;2023-04-25T07:00:05;0.10;;;0.10;;
1180;SDS011;579;52.046;8.532;2023-04-25T07:02:34;0.00;;;0.00;;
1180;SDS011;579;52.046;8.532;2023-04-25T07:10:06;0.10;;;0.10;;
1180;SDS011;579;52.046;8.532;2023-04-25T07:12:33;0.10;;;0.10;;
1180;SDS011;579;52.046;8.532;2023-04-25T07:15:00;0.10;;;0.10;;
1180;SDS011;579;52.046;8.532;2023-04-25T07:17:30;0.10;;;0.10;;
1180;SDS011;579;52.046;8.532;2023-04-25T07:19:58;0.10;;;0.10;;
1180;SDS011;579;52.046;8.532;2023-04-25T07:22:24;0.10;;;0.10;;
1180;SDS011;579;52.046;8.532;2023-04-25T07:24:51;0.08;;;0.08;;
1180;SDS011;579;52.046;8.532;2023-04-25T07:30:53;0.10;;;0.10;;
1180;SDS011;579;52.046;8.532;2023-04-25T07:33:19;0.10;;;0.10;;
1180;SDS011;579;52.046;8.532;2023-04-25T07:35:45;0.10;;;0.10;;
1180;SDS011;579;52.046;8.532;2023-04-25T07:38:12;0.00;;;0.00;;
1180;SDS011;579;52.046;8.532;2023-04-25T07:40:38;0.10;;;0.10;;
1180;SDS011;579;52.046;8.532;2023-04-25T07:43:04;0.10;;;0.10;;
1180;SDS011;579;52.046;8.532;2023-04-25T07:45:30;0.10;;;0.10;;
1180;SDS011;579;52.046;8.532;2023-04-25T07:53:01;0.10;;;0.10;;
1180;SDS011;579;52.046;8.532;2023-04-25T07:55:29;0.10;;;0.10;;
1180;SDS011;579;52.046;8.532;2023-04-25T07:57:55;0.10;;;0.10;;
1180;SDS011;579;52.046;8.532;2023-04-25T08:00:21;0.10;;;0.10;;
1180;SDS011;579;52.046;8.532;2023-04-25T08:02:48;0.10;;;0.10;;
1180;SDS011;579;52.046;8.532;2023-04-25T08:05:15;0.10;;;0.10;;
1180;SDS011;579;52.046;8.532;2023-04-25T08:07:42;0.10;;;0.10;;
1180;SDS011;579;52.046;8.532;2023-04-25T08:15:18;0.10;;;0.10;;
1180;SDS011;579;52.046;8.532;2023-04-25T08:17:45;0.10;;;0.10;;
1180;SDS011;579;52.046;8.532;2023-04-25T08:20:11;0.10;;;0.10;;
1180;SDS011;579;52.046;8.532;2023-04-25T08:22:38;0.10;;;0.10;;
1180;SDS011;579;52.046;8.532;2023-04-25T08:25:05;0.10;;;0.10;;
1180;SDS011;579;52.046;8.532;2023-04-25T08:27:32;0.10;;;0.10;;
1180;SDS011;579;52.046;8.532;2023-04-25T08:29:58;0.10;;;0.10;;
1180;SDS011;579;52.046;8.532;2023-04-25T08:35:20;0.00;;;0.00;;
1180;SDS011;579;52.046;8.532;2023-04-25T08:37:46;0.10;;;0.10;;
1180;SDS011;579;52.046;8.532;2023-04-25T08:40:14;0.10;;;0.10;;
1180;SDS011;579;52.046;8.532;2023-04-25T08:42:41;0.10;;;0.10;;
1180;SDS011;579;52.046;8.532;2023-04-25T08:45:08;0.10;;;0.10;;
1180;SDS011;579;52.046;8.532;2023-04-25T08:47:35;0.00;;;0.00;;
1180;SDS011;579;52.046;8.532;2023-04-25T08:50:04;0.10;;;0.10;;
1180;SDS011;579;52.046;8.532;2023-04-25T08:57:37;0.10;;;0.10;;
1180;SDS011;579;52.046;8.532;2023-04-25T09:00:06;0.05;;;0.05;;
1180;SDS011;579;52.046;8.532;2023-04-25T09:02:34;0.10;;;0.10;;
1180;SDS011;579;52.046;8.532;2023-04-25T09:05:01;0.10;;;0.10;;
1180;SDS011;579;52.046;8.532;2023-04-25T09:07:29;0.10;;;0.10;;
1180;SDS011;579;52.046;8.532;2023-04-25T09:09:55;0.10;;;0.10;;
1180;SDS011;579;52.046;8.532;2023-04-25T09:12:21;0.10;;;0.10;;
1180;SDS011;579;52.046;8.532;2023-04-25T09:20:08;0.10;;;0.10;;
1180;SDS011;579;52.046;8.532;2023-04-25T09:22:37;0.10;;;0.10;;
1180;SDS011;579;52.046;8.532;2023-04-25T09:25:07;0.10;;;0.10;;
1180;SDS011;579;52.046;8.532;2023-04-25T09:27:34;0.10;;;0.10;;
1180;SDS011;579;52.046;8.532;2023-04-25T09:30:01;0.10;;;0.10;;
1180;SDS011;579;52.046;8.532;2023-04-25T09:32:29;0.20;;;0.20;;
1180;SDS011;579;52.046;8.532;2023-04-25T09:34:56;0.10;;;0.10;;
1180;SDS011;579;52.046;8.532;2023-04-25T09:42:26;0.20;;;0.20;;
1180;SDS011;579;52.046;8.532;2023-04-25T09:44:54;0.30;;;0.30;;
1180;SDS011;579;52.046;8.532;2023-04-25T09:47:22;0.28;;;0.28;;
1180;SDS011;579;52.046;8.532;2023-04-25T09:49:50;0.22;;;0.22;;
1180;SDS011;579;52.046;8.532;2023-04-25T09:52:17;0.10;;;0.10;;
1180;SDS011;579;52.046;8.532;2023-04-25T09:54:46;0.20;;;0.20;;
1180;SDS011;579;52.046;8.532;2023-04-25T09:57:14;0.20;;;0.20;;
1180;SDS011;579;52.046;8.532;2023-04-25T10:04:49;0.08;;;0.08;;
1180;SDS011;579;52.046;8.532;2023-04-25T10:07:18;0.05;;;0.05;;
1180;SDS011;579;52.046;8.532;2023-04-25T10:09:47;0.10;;;0.10;;
1180;SDS011;579;52.046;8.532;2023-04-25T10:12:15;0.10;;;0.10;;
1180;SDS011;579;52.046;8.532;2023-04-25T10:14:43;0.10;;;0.10;;
1180;SDS011;579;52.046;8.532;2023-04-25T10:17:11;0.10;;;0.10;;
1180;SDS011;579;52.046;8.532;2023-04-25T10:19:37;0.10;;;0.10;;
1180;SDS011;579;52.046;8.532;2023-04-25T10:27:10;0.10;;;0.10;;
1180;SDS011;579;52.046;8.532;2023-04-25T10:29:36;0.10;;;0.10;;
1180;SDS011;579;52.046;8.532;2023-04-25T10:32:03;0.10;;;0.10;;
1180;SDS011;579;52.046;8.532;2023-04-25T10:34:39;0.10;;;0.10;;
1180;SDS011;579;52.046;8.532;2023-04-25T10:37:10;0.10;;;0.10;;
1180;SDS011;579;52.046;8.532;2023-04-25T10:39:38;0.00;;;0.00;;
1180;SDS011;579;52.046;8.532;2023-04-25T10:42:05;0.10;;;0.10;;
1180;SDS011;579;52.046;8.532;2023-04-25T10:49:44;0.10;;;0.10;;
1180;SDS011;579;52.046;8.532;2023-04-25T10:52:14;0.10;;;0.10;;
1180;SDS011;579;52.046;8.532;2023-04-25T10:54:51;0.10;;;0.10;;
1180;SDS011;579;52.046;8.532;2023-04-25T10:57:31;0.10;;;0.10;;
1180;SDS011;579;52.046;8.532;2023-04-25T11:00:05;0.10;;;0.10;;
1180;SDS011;579;52.046;8.532;2023-04-25T11:02:42;0.00;;;0.00;;
1180;SDS011;579;52.046;8.532;2023-04-25T11:07:55;0.10;;;0.10;;
1180;SDS011;579;52.046;8.532;2023-04-25T11:10:24;0.10;;;0.10;;
1180;SDS011;579;52.046;8.532;2023-04-25T11:12:52;0.10;;;0.10;;
1180;SDS011;579;52.046;8.532;2023-04-25T11:15:18;0.10;;;0.10;;
1180;SDS011;579;52.046;8.532;2023-04-25T11:17:45;0.10;;;0.10;;
1180;SDS011;579;52.046;8.532;2023-04-25T11:20:11;0.10;;;0.10;;
1180;SDS011;579;52.046;8.532;2023-04-25T11:22:39;0.10;;;0.10;;
1180;SDS011;579;52.046;8.532;2023-04-25T11:30:10;0.10;;;0.10;;
1180;SDS011;579;52.046;8.532;2023-04-25T11:32:39;0.10;;;0.10;;
1180;SDS011;579;52.046;8.532;2023-04-25T11:35:06;0.20;;;0.20;;
1180;SDS011;579;52.046;8.532;2023-04-25T11:37:33;0.10;;;0.10;;
1180;SDS011;579;52.046;8.532;2023-04-25T11:39:59;0.10;;;0.10;;
1180;SDS011;579;52.046;8.532;2023-04-25T11:42:26;0.10;;;0.10;;
1180;SDS011;579;52.046;8.532;2023-04-25T11:44:52;0.10;;;0.10;;
1180;SDS011;579;52.046;8.532;2023-04-25T11:51:53;0.08;;;0.08;;
1180;SDS011;579;52.046;8.532;2023-04-25T11:54:19;0.10;;;0.10;;
1180;SDS011;579;52.046;8.532;2023-04-25T11:56:46;0.10;;;0.10;;
1180;SDS011;579;52.046;8.532;2023-04-25T11:59:12;0.10;;;0.10;;
1180;SDS011;579;52.046;8.532;2023-04-25T12:01:40;0.10;;;0.10;;
1180;SDS011;579;52.046;8.532;2023-04-25T12:04:13;0.10;;;0.10;;
1180;SDS011;579;52.046;8.532;2023-04-25T12:06:42;0.10;;;0.10;;
1180;SDS011;579;52.046;8.532;2023-04-25T12:14:22;0.10;;;0.10;;
1180;SDS011;579;52.046;8.532;2023-04-25T12:16:50;0.10;;;0.10;;
1180;SDS011;579;52.046;8.532;2023-04-25T12:19:17;0.10;;;0.10;;
1180;SDS011;579;52.046;8.532;2023-04-25T12:21:45;0.10;;;0.10;;
1180;SDS011;579;52.046;8.532;2023-04-25T12:24:13;0.10;;;0.10;;
1180;SDS011;579;52.046;8.532;2023-04-25T12:26:47;0.10;;;0.10;;
1180;SDS011;579;52.046;8.532;2023-04-25T12:29:16;0.10;;;0.10;;
1180;SDS011;579;52.046;8.532;2023-04-25T12:36:43;0.10;;;0.10;;
1180;SDS011;579;52.046;8.532;2023-04-25T12:39:13;0.10;;;0.10;;
1180;SDS011;579;52.046;8.532;2023-04-25T12:41:41;0.10;;;0.10;;
1180;SDS011;579;52.046;8.532;2023-04-25T12:44:07;0.10;;;0.10;;
1180;SDS011;579;52.046;8.532;2023-04-25T12:46:34;0.20;;;0.20;;
1180;SDS011;579;52.046;8.532;2023-04-25T12:49:00;0.10;;;0.10;;
1180;SDS011;579;52.046;8.532;2023-04-25T12:51:28;0.10;;;0.10;;
1180;SDS011;579;52.046;8.532;2023-04-25T12:59:00;0.20;;;0.20;;
1180;SDS011;579;52.046;8.532;2023-04-25T13:01:28;0.10;;;0.10;;
1180;SDS011;579;52.046;8.532;2023-04-25T13:03:55;0.30;;;0.30;;
1180;SDS011;579;52.046;8.532;2023-04-25T13:06:21;0.10;;;0.10;;
1180;SDS011;579;52.046;8.532;2023-04-25T13:08:48;0.15;;;0.15;;
1180;SDS011;579;52.046;8.532;2023-04-25T13:11:14;0.10;;;0.10;;
1180;SDS011;579;52.046;8.532;2023-04-25T13:13:40;0.30;;;0.30;;
1180;SDS011;579;52.046;8.532;2023-04-25T13:21:20;0.20;;;0.20;;
1180;SDS011;579;52.046;8.532;2023-04-25T13:23:46;0.20;;;0.20;;
1180;SDS011;579;52.046;8.532;2023-04-25T13:26:12;0.20;;;0.20;;
1180;SDS011;579;52.046;8.532;2023-04-25T13:28:38;0.20;;;0.20;;
1180;SDS011;579;52.046;8.532;2023-04-25T13:31:06;0.10;;;0.10;;
1180;SDS011;579;52.046;8.532;2023-04-25T13:33:33;0.20;;;0.20;;
1180;SDS011;579;52.046;8.532;2023-04-25T13:36:00;0.10;;;0.10;;
1180;SDS011;579;52.046;8.532;2023-04-25T13:41:54;0.10;;;0.10;;
1180;SDS011;579;52.046;8.532;2023-04-25T13:44:21;0.10;;;0.10;;
1180;SDS011;579;52.046;8.532;2023-04-25T13:46:48;0.10;;;0.10;;
1180;SDS011;579;52.046;8.532;2023-04-25T13:49:14;0.20;;;0.20;;
1180;SDS011;579;52.046;8.532;2023-04-25T13:51:40;0.10;;;0.10;;
1180;SDS011;579;52.046;8.532;2023-04-25T13:54:07;0.20;;;0.20;;
1180;SDS011;579;52.046;8.532;2023-04-25T13:56:33;0.30;;;0.30;;
1180;SDS011;579;52.046;8.532;2023-04-25T14:01:40;0.50;;;0.50;;
1180;SDS011;579;52.046;8.532;2023-04-25T14:04:06;0.30;;;0.30;;
1180;SDS011;579;52.046;8.532;2023-04-25T14:06:32;0.40;;;0.40;;
1180;SDS011;579;52.046;8.532;2023-04-25T14:09:00;0.60;;;0.60;;
1180;SDS011;579;52.046;8.532;2023-04-25T14:11:26;0.70;;;0.70;;
1180;SDS011;579;52.046;8.532;2023-04-25T14:13:53;0.73;;;0.73;;
1180;SDS011;579;52.046;8.532;2023-04-25T14:16:19;0.40;;;0.40;;
1180;SDS011;579;52.046;8.532;2023-04-25T14:23:50;2.15;;;2.15;;
1180;SDS011;579;52.046;8.532;2023-04-25T14:26:16;1.75;;;1.75;;
1180;SDS011;579;52.046;8.532;2023-04-25T14:28:43;1.10;;;1.10;;
1180;SDS011;579;52.046;8.532;2023-04-25T14:31:09;1.10;;;1.10;;
1180;SDS011;579;52.046;8.532;2023-04-25T14:33:35;0.63;;;0.63;;
1180;SDS011;579;52.046;8.532;2023-04-25T14:36:04;1.05;;;1.05;;
1180;SDS011;579;52.046;8.532;2023-04-25T14:38:31;1.10;;;1.10;;
1180;SDS011;579;52.046;8.532;2023-04-25T14:45:58;0.50;;;0.50;;
1180;SDS011;579;52.046;8.532;2023-04-25T14:48:24;0.40;;;0.40;;
1180;SDS011;579;52.046;8.532;2023-04-25T14:50:51;0.20;;;0.20;;
1180;SDS011;579;52.046;8.532;2023-04-25T14:53:17;0.40;;;0.40;;
1180;SDS011;579;52.046;8.532;2023-04-25T14:55:44;0.43;;;0.43;;
1180;SDS011;579;52.046;8.532;2023-04-25T14:58:10;0.20;;;0.20;;
1180;SDS011;579;52.046;8.532;2023-04-25T15:00:37;0.20;;;0.20;;
1180;SDS011;579;52.046;8.532;2023-04-25T15:07:24;0.90;;;0.90;;
1180;SDS011;579;52.046;8.532;2023-04-25T15:09:50;0.70;;;0.70;;
1180;SDS011;579;52.046;8.532;2023-04-25T15:12:18;0.68;;;0.68;;
1180;SDS011;579;52.046;8.532;2023-04-25T15:14:45;0.70;;;0.70;;
1180;SDS011;579;52.046;8.532;2023-04-25T15:17:11;0.50;;;0.50;;
1180;SDS011;579;52.046;8.532;2023-04-25T15:19:44;0.57;;;0.57;;
1180;SDS011;579;52.046;8.532;2023-04-25T15:22:11;0.70;;;0.70;;
1180;SDS011;579;52.046;8.532;2023-04-25T15:28:22;0.70;;;0.70;;
1180;SDS011;579;52.046;8.532;2023-04-25T15:30:48;0.60;;;0.60;;
1180;SDS011;579;52.046;8.532;2023-04-25T15:33:15;0.57;;;0.57;;
1180;SDS011;579;52.046;8.532;2023-04-25T15:35:42;0.68;;;0.68;;
1180;SDS011;579;52.046;8.532;2023-04-25T15:38:08;0.80;;;0.80;;
1180;SDS011;579;52.046;8.532;2023-04-25T15:40:35;0.85;;;0.85;;
1180;SDS011;579;52.046;8.532;2023-04-25T15:43:01;0.70;;;0.70;;
1180;SDS011;579;52.046;8.532;2023-04-25T15:50:24;0.20;;;0.20;;
1180;SDS011;579;52.046;8.532;2023-04-25T15:52:51;0.10;;;0.10;;
1180;SDS011;579;52.046;8.532;2023-04-25T15:55:18;0.20;;;0.20;;
1180;SDS011;579;52.046;8.532;2023-04-25T15:57:45;0.20;;;0.20;;
1180;SDS011;579;52.046;8.532;2023-04-25T16:00:14;0.20;;;0.20;;
1180;SDS011;579;52.046;8.532;2023-04-25T16:02:42;0.20;;;0.20;;
1180;SDS011;579;52.046;8.532;2023-04-25T16:05:10;0.20;;;0.20;;
1180;SDS011;579;52.046;8.532;2023-04-25T16:11:54;0.30;;;0.30;;
1180;SDS011;579;52.046;8.532;2023-04-25T16:14:21;0.30;;;0.30;;
1180;SDS011;579;52.046;8.532;2023-04-25T16:16:47;0.10;;;0.10;;
1180;SDS011;579;52.046;8.532;2023-04-25T16:19:14;0.10;;;0.10;;
1180;SDS011;579;52.046;8.532;2023-04-25T16:21:42;0.10;;;0.10;;
1180;SDS011;579;52.046;8.532;2023-04-25T16:24:08;0.10;;;0.10;;
1180;SDS011;579;52.046;8.532;2023-04-25T16:26:35;0.20;;;0.20;;
1180;SDS011;579;52.046;8.532;2023-04-25T16:32:52;0.10;;;0.10;;
1180;SDS011;579;52.046;8.532;2023-04-25T16:35:21;0.10;;;0.10;;
1180;SDS011;579;52.046;8.532;2023-04-25T16:37:47;0.10;;;0.10;;
1180;SDS011;579;52.046;8.532;2023-04-25T16:40:14;0.10;;;0.10;;
1180;SDS011;579;52.046;8.532;2023-04-25T16:42:41;0.10;;;0.10;;
1180;SDS011;579;52.046;8.532;2023-04-25T16:45:13;0.10;;;0.10;;
1180;SDS011;579;52.046;8.532;2023-04-25T16:47:41;0.10;;;0.10;;
1180;SDS011;579;52.046;8.532;2023-04-25T16:53:53;0.10;;;0.10;;
1180;SDS011;579;52.046;8.532;2023-04-25T16:56:20;0.10;;;0.10;;
1180;SDS011;579;52.046;8.532;2023-04-25T16:58:48;0.10;;;0.10;;
1180;SDS011;579;52.046;8.532;2023-04-25T17:01:16;0.10;;;0.10;;
1180;SDS011;579;52.046;8.532;2023-04-25T17:03:44;0.10;;;0.10;;
1180;SDS011;579;52.046;8.532;2023-04-25T17:06:11;0.10;;;0.10;;
1180;SDS011;579;52.046;8.532;2023-04-25T17:08:38;0.10;;;0.10;;
1180;SDS011;579;52.046;8.532;2023-04-25T17:13:45;0.17;;;0.17;;
1180;SDS011;579;52.046;8.532;2023-04-25T17:16:12;0.10;;;0.10;;
1180;SDS011;579;52.046;8.532;2023-04-25T17:18:40;0.10;;;0.10;;
1180;SDS011;579;52.046;8.532;2023-04-25T17:21:08;0.10;;;0.10;;
1180;SDS011;579;52.046;8.532;2023-04-25T17:23:34;0.10;;;0.10;;
1180;SDS011;579;52.046;8.532;2023-04-25T17:26:08;0.00;;;0.00;;
1180;SDS011;579;52.046;8.532;2023-04-25T17:28:36;0.10;;;0.10;;
1180;SDS011;579;52.046;8.532;2023-04-25T17:33:40;0.10;;;0.10;;
1180;SDS011;579;52.046;8.532;2023-04-25T17:36:08;0.10;;;0.10;;
1180;SDS011;579;52.046;8.532;2023-04-25T17:38:35;0.10;;;0.10;;
1180;SDS011;579;52.046;8.532;2023-04-25T17:41:03;0.10;;;0.10;;
1180;SDS011;579;52.046;8.532;2023-04-25T17:43:29;0.10;;;0.10;;
1180;SDS011;579;52.046;8.532;2023-04-25T17:45:57;0.10;;;0.10;;
1180;SDS011;579;52.046;8.532;2023-04-25T17:48:24;0.00;;;0.00;;
1180;SDS011;579;52.046;8.532;2023-04-25T17:53:26;0.00;;;0.00;;
1180;SDS011;579;52.046;8.532;2023-04-25T17:55:52;0.00;;;0.00;;
1180;SDS011;579;52.046;8.532;2023-04-25T17:58:20;0.00;;;0.00;;
1180;SDS011;579;52.046;8.532;2023-04-25T18:00:46;0.00;;;0.00;;
1180;SDS011;579;52.046;8.532;2023-04-25T18:03:13;0.00;;;0.00;;
1180;SDS011;579;52.046;8.532;2023-04-25T18:05:40;0.00;;;0.00;;
1180;SDS011;579;52.046;8.532;2023-04-25T18:08:06;0.00;;;0.00;;
1180;SDS011;579;52.046;8.532;2023-04-25T18:13:54;0.00;;;0.00;;
1180;SDS011;579;52.046;8.532;2023-04-25T18:16:21;0.00;;;0.00;;
1180;SDS011;579;52.046;8.532;2023-04-25T18:18:48;0.00;;;0.00;;
1180;SDS011;579;52.046;8.532;2023-04-25T18:21:17;0.00;;;0.00;;
1180;SDS011;579;52.046;8.532;2023-04-25T18:23:44;0.00;;;0.00;;
1180;SDS011;579;52.046;8.532;2023-04-25T18:26:10;0.00;;;0.00;;
1180;SDS011;579;52.046;8.532;2023-04-25T18:28:37;0.00;;;0.00;;
1180;SDS011;579;52.046;8.532;2023-04-25T18:34:23;0.00;;;0.00;;
1180;SDS011;579;52.046;8.532;2023-04-25T18:36:50;0.00;;;0.00;;
1180;SDS011;579;52.046;8.532;2023-04-25T18:39:17;0.00;;;0.00;;
1180;SDS011;579;52.046;8.532;2023-04-25T18:41:44;0.00;;;0.00;;
1180;SDS011;579;52.046;8.532;2023-04-25T18:44:11;0.00;;;0.00;;
1180;SDS011;579;52.046;8.532;2023-04-25T18:46:37;0.00;;;0.00;;
1180;SDS011;579;52.046;8.532;2023-04-25T18:49:07;0.00;;;0.00;;
1180;SDS011;579;52.046;8.532;2023-04-25T18:54:11;0.00;;;0.00;;
1180;SDS011;579;52.046;8.532;2023-04-25T18:56:38;0.00;;;0.00;;
1180;SDS011;579;52.046;8.532;2023-04-25T18:59:05;0.00;;;0.00;;
1180;SDS011;579;52.046;8.532;2023-04-25T19:01:32;0.00;;;0.00;;
1180;SDS011;579;52.046;8.532;2023-04-25T19:03:59;0.00;;;0.00;;
1180;SDS011;579;52.046;8.532;2023-04-25T19:06:27;0.00;;;0.00;;
1180;SDS011;579;52.046;8.532;2023-04-25T19:08:53;0.00;;;0.00;;
1180;SDS011;579;52.046;8.532;2023-04-25T19:14:04;0.00;;;0.00;;
1180;SDS011;579;52.046;8.532;2023-04-25T19:16:30;0.00;;;0.00;;